Terminal Aerodrome Forecast
Issued by NWS

Home | Current Version | Previous Version | Text Only | Print | Product List | Glossary On
Versions: 1 2 3 4 5 6 7 8 9 10 11 12 13 14 15 16 17 18 19 20 21 22 23 24 25 26 27 28
000
FTUS44 KOUN 031720
TAFHBR
TAF
KHBR 031720Z 0318/0418 19018G26KT P6SM SCT180
     FM040100 16013KT P6SM BKN250
     FM041200 18013G17KT P6SM OVC015
     FM041500 19017G24KT P6SM OVC007=

USA.gov is the U.S. government's official web portal to all federal, state and local government web resources and services.